Time;durP1;ratioP1;P1;durP2;ratioP2;P2;SDS_P1;SDS_P2;PMS_P1;PMS_P2;Temp;Humidity;BMP_temperature;BMP_pressure;BME280_temperature;BME280_humidity;BME280_pressure;Samples;Min_cycle;Max_cycle;Signal;HPM_P1;HPM_P2
2022/12/13 00:01:33;;;;;;;94.82;43.58;;;1.90;99.90;;;;;;5092478;28;20048;-54
2022/12/13 00:04:01;;;;;;;121.35;53.47;;;2.00;99.90;;;;;;5058659;28;20036;-54
2022/12/13 00:06:28;;;;;;;90.60;45.17;;;2.10;99.90;;;;;;5092454;28;20078;-54
2022/12/13 00:08:54;;;;;;;132.85;62.42;;;2.10;99.90;;;;;;5094307;28;20078;-55
2022/12/13 00:11:20;;;;;;;176.98;76.15;;;2.10;99.90;;;;;;5114989;28;20032;-54
2022/12/13 00:13:48;;;;;;;129.45;64.13;;;2.10;99.90;;;;;;5114204;28;20110;-55
2022/12/13 00:16:17;;;;;;;142.20;65.50;;;2.10;99.90;;;;;;5114843;28;20528;-54
2022/12/13 00:18:46;;;;;;;113.70;57.67;;;2.10;99.90;;;;;;5115014;28;20038;-54
2022/12/13 00:21:14;;;;;;;69.65;40.22;;;2.20;99.90;;;;;;5114886;28;20034;-54
2022/12/13 00:23:40;;;;;;;37.10;23.95;;;2.20;99.90;;;;;;5114316;28;20074;-54
2022/12/13 00:26:11;;;;;;;48.35;30.17;;;2.20;99.90;;;;;;5114359;28;20494;-54
2022/12/13 00:28:38;;;;;;;40.33;25.17;;;2.30;99.90;;;;;;5114776;28;20055;-55
2022/12/13 00:31:04;;;;;;;29.38;18.80;;;2.30;99.90;;;;;;5114602;28;20070;-55
2022/12/13 00:33:30;;;;;;;41.83;28.13;;;2.30;99.90;;;;;;5114428;28;20031;-54
2022/12/13 00:35:56;;;;;;;31.38;20.05;;;2.30;99.90;;;;;;5112372;28;20047;-55
2022/12/13 00:38:22;;;;;;;27.67;17.75;;;2.30;99.90;;;;;;5114565;28;20034;-54
2022/12/13 00:40:48;;;;;;;28.02;18.13;;;2.20;99.90;;;;;;5114140;28;20042;-55
2022/12/13 00:43:14;;;;;;;36.03;22.73;;;2.20;99.90;;;;;;5114394;28;20032;-54
2022/12/13 00:45:40;;;;;;;32.53;21.92;;;2.20;99.90;;;;;;5114195;28;20042;-54
2022/12/13 00:48:06;;;;;;;28.77;18.02;;;2.20;99.90;;;;;;5114028;28;20028;-54
2022/12/13 00:50:32;;;;;;;27.75;17.75;;;2.20;99.90;;;;;;5114159;28;20050;-54
2022/12/13 00:52:59;;;;;;;27.63;18.40;;;2.20;99.90;;;;;;5114008;27;20037;-54
2022/12/13 00:55:26;;;;;;;32.55;21.15;;;2.20;99.90;;;;;;5114099;28;20019;-54
2022/12/13 00:57:51;;;;;;;35.03;23.75;;;2.20;99.90;;;;;;5113925;28;20135;-55
2022/12/13 01:00:17;;;;;;;65.65;40.55;;;2.10;99.90;;;;;;5114116;28;20107;-54
2022/12/13 01:02:43;;;;;;;60.20;38.55;;;2.10;99.90;;;;;;5114047;28;20110;-54
2022/12/13 01:05:09;;;;;;;38.92;27.20;;;2.20;99.90;;;;;;5113684;28;20054;-54
2022/12/13 01:07:36;;;;;;;34.25;24.67;;;2.10;99.90;;;;;;5113838;28;20360;-54
2022/12/13 01:10:06;;;;;;;50.20;31.67;;;2.10;99.90;;;;;;5113938;28;20099;-54
2022/12/13 01:12:33;;;;;;;37.65;25.63;;;2.00;99.90;;;;;;5094850;28;20052;-54
2022/12/13 01:14:59;;;;;;;42.85;25.13;;;1.90;99.90;;;;;;5113913;28;20442;-54
2022/12/13 01:17:24;;;;;;;51.08;31.45;;;1.70;99.90;;;;;;5113162;28;20115;-55
2022/12/13 01:19:50;;;;;;;55.17;32.63;;;1.60;99.90;;;;;;5113773;28;20031;-55
2022/12/13 01:22:16;;;;;;;47.85;30.25;;;1.70;99.90;;;;;;5113621;28;20023;-54
2022/12/13 01:24:43;;;;;;;47.35;29.55;;;1.70;99.90;;;;;;5113559;28;20102;-54
2022/12/13 01:27:09;;;;;;;50.75;29.95;;;1.90;99.90;;;;;;5113423;28;20070;-54
2022/12/13 01:29:35;;;;;;;47.58;30.35;;;1.90;99.90;;;;;;5113551;28;20079;-54
2022/12/13 01:32:00;;;;;;;46.03;28.48;;;1.90;99.90;;;;;;5060771;28;20036;-54
2022/12/13 01:34:26;;;;;;;38.97;24.13;;;1.60;99.90;;;;;;5113703;28;20035;-54
2022/12/13 01:36:53;;;;;;;40.30;26.67;;;1.30;99.90;;;;;;5113511;28;20032;-54
2022/12/13 01:39:19;;;;;;;40.60;26.17;;;1.10;99.90;;;;;;5111673;28;20052;-54
2022/12/13 01:41:51;;;;;;;38.42;25.85;;;1.20;99.90;;;;;;5113565;28;20027;-54
2022/12/13 01:44:54;;;;;;;42.88;26.55;;;1.30;99.90;;;;;;5113300;28;20046;-54
2022/12/13 01:47:46;;;;;;;37.30;24.13;;;1.30;99.90;;;;;;5113447;28;20028;-54
2022/12/13 01:50:21;;;;;;;40.15;25.55;;;1.60;99.90;;;;;;5111384;28;20040;-54
2022/12/13 01:52:47;;;;;;;41.53;26.38;;;1.60;99.90;;;;;;5113057;28;20111;-54
2022/12/13 01:55:17;;;;;;;40.20;26.17;;;1.70;99.90;;;;;;5113664;28;20031;-54
2022/12/13 01:57:45;;;;;;;47.42;28.33;;;1.80;99.90;;;;;;5113394;28;20475;-54
2022/12/13 02:00:11;;;;;;;40.22;27.02;;;1.80;99.90;;;;;;5112849;28;20039;-54
2022/12/13 02:02:38;;;;;;;45.45;29.40;;;1.80;99.90;;;;;;5113432;28;20035;-54
2022/12/13 02:05:14;;;;;;;41.80;28.00;;;1.90;99.90;;;;;;5111794;28;20515;-54
2022/12/13 02:07:42;;;;;;;38.15;26.05;;;1.60;99.90;;;;;;5113342;28;20038;-54
2022/12/13 02:10:09;;;;;;;39.83;26.42;;;1.70;99.90;;;;;;5113114;28;20035;-54
2022/12/13 02:12:36;;;;;;;36.90;24.27;;;1.70;99.90;;;;;;5094351;28;20129;-55
2022/12/13 02:15:13;;;;;;;34.25;25.05;;;1.80;99.90;;;;;;5113471;28;20536;-54
2022/12/13 02:18:00;;;;;;;34.35;23.15;;;1.70;99.90;;;;;;5113440;28;20066;-54
2022/12/13 02:20:35;;;;;;;35.08;23.58;;;1.60;99.90;;;;;;5111196;28;20124;-54
2022/12/13 02:23:36;;;;;;;39.83;24.77;;;1.60;99.90;;;;;;5112894;28;20498;-54
2022/12/13 02:26:35;;;;;;;36.40;23.70;;;1.70;99.90;;;;;;5112782;28;20119;-55
2022/12/13 02:29:25;;;;;;;34.72;22.17;;;1.70;99.90;;;;;;5113033;28;20403;-55
2022/12/13 02:32:14;;;;;;;41.85;24.15;;;1.80;99.90;;;;;;5117052;28;20378;-54
2022/12/13 02:35:02;;;;;;;49.30;30.45;;;1.70;99.90;;;;;;5116849;28;20390;-54
2022/12/13 02:37:55;;;;;;;41.35;25.70;;;1.60;99.90;;;;;;5117045;28;20058;-54
2022/12/13 02:40:46;;;;;;;42.30;26.58;;;1.60;99.90;;;;;;5116924;27;20032;-54
2022/12/13 02:43:37;;;;;;;34.10;20.95;;;1.30;99.90;;;;;;5097671;28;20040;-55
2022/12/13 02:46:05;;;;;;;36.55;24.05;;;0.30;99.90;;;;;;5116096;28;20128;-55
2022/12/13 02:48:35;;;;;;;30.58;22.13;;;-0.10;99.90;;;;;;5116646;28;20024;-54
2022/12/13 02:51:03;;;;;;;66.07;32.20;;;0.00;99.90;;;;;;5116397;28;20031;-54
2022/12/13 02:53:30;;;;;;;53.40;27.27;;;;;;;;;;5116512;28;20047;-54
2022/12/13 02:55:56;;;;;;;102.03;45.85;;;0.60;99.90;;;;;;5116399;28;20036;-54
2022/12/13 02:58:31;;;;;;;84.90;40.97;;;0.70;99.90;;;;;;5116375;28;20101;-54
2022/12/13 03:01:14;;;;;;;73.28;38.03;;;0.90;99.90;;;;;;5116274;27;20032;-55
2022/12/13 03:03:52;;;;;;;59.85;33.95;;;1.10;99.90;;;;;;5116272;28;20095;-54
2022/12/13 03:06:38;;;;;;;60.40;34.80;;;1.20;99.90;;;;;;5116030;28;20035;-54
2022/12/13 03:09:23;;;;;;;51.97;33.75;;;1.30;99.90;;;;;;5116245;28;20042;-54
2022/12/13 03:14:56;;;;;;;43.58;26.85;;;1.40;99.90;;;;;;5116048;28;20034;-55
2022/12/13 03:17:25;;;;;;;39.17;27.42;;;1.50;99.90;;;;;;5116491;28;20035;-54
2022/12/13 03:19:52;;;;;;;141.27;63.05;;;1.60;99.90;;;;;;5115989;28;20034;-54
2022/12/13 03:22:18;;;;;;;134.40;58.55;;;1.60;99.90;;;;;;5116007;28;20103;-54
2022/12/13 03:24:44;;;;;;;127.38;59.88;;;;;;;;;;5115669;28;20118;-54
2022/12/13 03:27:12;;;;;;;37.80;24.95;;;0.90;99.90;;;;;;5115541;28;20043;-54
2022/12/13 03:29:38;;;;;;;34.83;21.73;;;0.80;99.90;;;;;;5115941;28;20065;-54
2022/12/13 03:32:04;;;;;;;35.22;24.15;;;0.60;99.90;;;;;;5115657;28;20455;-54
2022/12/13 03:34:30;;;;;;;32.83;22.80;;;0.30;99.90;;;;;;5115607;28;20058;-54
2022/12/13 03:36:55;;;;;;;45.13;28.50;;;0.40;99.90;;;;;;5115631;28;20429;-54
2022/12/13 03:39:22;;;;;;;44.88;28.83;;;0.60;99.90;;;;;;5115864;28;20062;-54
2022/12/13 03:41:48;;;;;;;43.80;27.75;;;0.90;99.90;;;;;;5115480;28;20076;-54
2022/12/13 03:44:14;;;;;;;36.83;24.27;;;1.20;99.90;;;;;;5115659;28;20106;-54
2022/12/13 03:46:40;;;;;;;39.97;25.88;;;1.40;99.90;;;;;;5115611;28;20032;-54
2022/12/13 03:49:06;;;;;;;42.25;27.33;;;1.50;99.90;;;;;;5115387;28;20049;-54
2022/12/13 03:51:31;;;;;;;38.15;22.88;;;1.30;99.90;;;;;;5115359;28;20028;-54
2022/12/13 03:53:57;;;;;;;35.92;24.13;;;1.10;99.90;;;;;;5115543;28;20490;-54
2022/12/13 03:56:23;;;;;;;39.70;25.10;;;1.20;99.90;;;;;;5115172;28;20027;-54
2022/12/13 03:58:49;;;;;;;39.42;24.42;;;;;;;;;;5115112;28;20088;-54
2022/12/13 04:01:16;;;;;;;40.50;25.05;;;1.40;99.90;;;;;;5115088;28;20479;-54
2022/12/13 04:03:44;;;;;;;30.13;20.98;;;1.50;99.90;;;;;;5115249;28;20459;-54
2022/12/13 04:06:11;;;;;;;27.77;19.15;;;1.30;99.90;;;;;;5096086;28;20054;-54
2022/12/13 04:08:37;;;;;;;35.03;23.40;;;1.00;99.90;;;;;;5114917;28;20031;-54
2022/12/13 04:13:31;;;;;;;29.00;20.42;;;0.60;99.90;;;;;;5114729;28;20027;-54
2022/12/13 04:13:50;;;;;;;23.42;16.77;;;0.60;99.90;;;;;;5114851;28;20035;-55
2022/12/13 04:16:15;;;;;;;26.45;18.33;;;0.70;99.90;;;;;;5114673;28;20368;-54
2022/12/13 04:18:41;;;;;;;34.30;22.58;;;0.80;99.90;;;;;;5114920;28;20089;-54
2022/12/13 04:21:07;;;;;;;27.02;18.10;;;0.50;99.90;;;;;;5114652;28;20462;-54
2022/12/13 04:23:33;;;;;;;31.45;20.50;;;0.50;99.90;;;;;;5114605;28;20047;-54
2022/12/13 04:26:00;;;;;;;28.92;20.13;;;0.50;99.90;;;;;;5114615;28;20106;-54
2022/12/13 04:28:25;;;;;;;25.10;16.63;;;0.60;99.90;;;;;;5114601;28;20043;-54
2022/12/13 04:30:51;;;;;;;25.05;16.70;;;0.70;99.90;;;;;;5114524;28;20034;-54
2022/12/13 04:33:19;;;;;;;22.65;15.55;;;0.40;99.90;;;;;;5095661;28;20043;-55
2022/12/13 04:35:49;;;;;;;22.05;14.35;;;0.10;99.90;;;;;;5114634;28;20475;-54
2022/12/13 04:38:15;;;;;;;20.05;13.75;;;0.00;99.90;;;;;;5114714;28;20027;-54
2022/12/13 04:40:40;;;;;;;22.15;14.68;;;0.00;99.90;;;;;;5114198;28;20122;-54
2022/12/13 04:43:06;;;;;;;21.30;13.88;;;;;;;;;;5114755;28;20098;-54
2022/12/13 04:45:32;;;;;;;17.80;13.40;;;-0.30;99.90;;;;;;5114577;28;20031;-54
2022/12/13 04:47:58;;;;;;;19.20;12.38;;;-0.30;99.90;;;;;;5114079;28;20035;-54
2022/12/13 04:50:24;;;;;;;21.40;12.43;;;-0.60;99.90;;;;;;5114094;28;20033;-54
2022/12/13 04:52:50;;;;;;;14.80;7.63;;;-0.70;99.90;;;;;;5113339;28;20095;-54
2022/12/13 04:55:16;;;;;;;17.98;11.25;;;-1.10;99.90;;;;;;5114023;28;20031;-54
2022/12/13 04:57:42;;;;;;;17.17;10.57;;;-1.20;99.90;;;;;;5113922;28;20023;-54
2022/12/13 05:00:11;;;;;;;18.05;11.52;;;-1.20;99.90;;;;;;5094673;28;20036;-54
2022/12/13 05:02:37;;;;;;;15.32;9.75;;;-1.20;99.90;;;;;;5113706;28;20039;-54
2022/12/13 05:05:03;;;;;;;16.85;11.05;;;-1.10;99.90;;;;;;5113975;28;20122;-54
2022/12/13 05:07:29;;;;;;;18.40;11.25;;;-1.10;99.90;;;;;;5095230;28;20544;-54
2022/12/13 05:09:55;;;;;;;16.35;9.05;;;-1.10;99.90;;;;;;5091316;28;20055;-54
2022/12/13 05:12:21;;;;;;;14.85;8.60;;;-1.10;99.90;;;;;;5091313;28;20476;-55
2022/12/13 05:14:46;;;;;;;14.77;10.05;;;-1.10;99.90;;;;;;5091407;28;20115;-54
2022/12/13 05:17:12;;;;;;;14.80;10.43;;;-1.20;99.90;;;;;;5091350;28;20089;-54
2022/12/13 05:19:38;;;;;;;18.27;11.35;;;-1.10;99.90;;;;;;5091205;28;20047;-54
2022/12/13 05:22:04;;;;;;;25.58;14.20;;;-1.00;99.90;;;;;;5091361;28;20209;-54
2022/12/13 05:24:30;;;;;;;19.80;12.82;;;-1.00;99.90;;;;;;5091908;28;20124;-57
2022/12/13 05:26:57;;;;;;;21.52;13.27;;;-1.00;99.90;;;;;;5095579;28;20032;-60
2022/12/13 05:29:23;;;;;;;19.63;11.55;;;-0.80;99.90;;;;;;5095916;28;20039;-57
2022/12/13 05:31:49;;;;;;;20.20;12.82;;;-0.70;99.90;;;;;;5045385;28;20113;-55
2022/12/13 05:34:15;;;;;;;17.25;12.55;;;-0.50;99.90;;;;;;5077837;28;20480;-57
2022/12/13 05:36:41;;;;;;;18.50;11.88;;;-0.40;99.90;;;;;;5094099;28;20060;-54
2022/12/13 05:39:07;;;;;;;16.48;11.55;;;-0.40;99.90;;;;;;5040717;28;20038;-54
2022/12/13 05:41:34;;;;;;;22.45;12.35;;;-0.50;99.90;;;;;;5087421;28;20085;-60
2022/12/13 05:44:00;;;;;;;45.33;22.15;;;-0.50;99.90;;;;;;5117196;28;20027;-55
2022/12/13 05:46:26;;;;;;;54.40;29.33;;;-0.90;99.90;;;;;;5117743;28;20104;-55
2022/12/13 05:48:51;;;;;;;30.80;17.83;;;-0.80;99.90;;;;;;5117166;28;20055;-55
2022/12/13 05:51:17;;;;;;;28.90;19.55;;;-0.80;99.90;;;;;;5118063;28;20092;-63
2022/12/13 05:53:45;;;;;;;24.30;15.38;;;-0.80;99.90;;;;;;5116803;28;20027;-59
2022/12/13 05:56:12;;;;;;;24.35;15.93;;;-0.80;99.90;;;;;;5115938;28;20027;-60
2022/12/13 05:58:39;;;;;;;23.13;13.40;;;-0.50;99.90;;;;;;5116504;28;20083;-55
2022/12/13 06:01:07;;;;;;;22.17;13.38;;;-0.40;99.90;;;;;;5113818;28;20027;-54
2022/12/13 06:03:33;;;;;;;27.65;16.48;;;-0.40;99.90;;;;;;5112721;28;20032;-55
2022/12/13 06:06:04;;;;;;;28.88;16.80;;;-0.40;99.90;;;;;;5116766;28;20671;-55
2022/12/13 06:08:30;;;;;;;23.75;14.75;;;-0.40;99.90;;;;;;5114185;28;20062;-54
2022/12/13 06:10:57;;;;;;;14.32;9.25;;;-0.40;99.90;;;;;;5116748;28;20020;-55
2022/12/13 06:13:23;;;;;;;17.83;11.50;;;-0.50;99.90;;;;;;5116603;28;20028;-57
2022/12/13 06:15:49;;;;;;;19.13;11.32;;;-0.70;99.90;;;;;;5116561;28;20383;-57
2022/12/13 06:18:15;;;;;;;20.45;12.65;;;-1.00;99.90;;;;;;5078010;28;20036;-60
2022/12/13 06:20:41;;;;;;;36.15;23.25;;;-1.10;99.90;;;;;;5096816;28;20031;-59
2022/12/13 06:23:06;;;;;;;34.78;20.52;;;-0.90;99.90;;;;;;5107634;28;20023;-54
2022/12/13 06:25:32;;;;;;;30.83;19.60;;;-0.90;99.90;;;;;;5116430;28;20067;-55
2022/12/13 06:27:58;;;;;;;16.92;11.85;;;-0.90;99.90;;;;;;5116736;28;20488;-48
2022/12/13 06:30:24;;;;;;;19.13;11.93;;;-0.90;99.90;;;;;;5097195;28;20043;-47
2022/12/13 06:32:50;;;;;;;34.25;21.60;;;-0.80;99.90;;;;;;5117149;28;20097;-51
2022/12/13 06:35:16;;;;;;;60.42;39.15;;;-0.70;99.90;;;;;;5116801;28;20030;-55
2022/12/13 06:37:42;;;;;;;83.20;51.30;;;-0.50;99.90;;;;;;5116720;28;20102;-52
2022/12/13 06:40:08;;;;;;;53.22;34.00;;;-0.30;99.90;;;;;;5114491;28;20398;-53
2022/12/13 06:42:34;;;;;;;28.33;20.17;;;0.00;99.90;;;;;;5117172;27;20073;-54
2022/12/13 06:44:59;;;;;;;33.30;20.85;;;0.30;99.90;;;;;;5117007;28;20413;-51
2022/12/13 06:47:26;;;;;;;32.15;21.55;;;0.60;99.90;;;;;;5117407;28;20039;-53
2022/12/13 06:49:52;;;;;;;37.40;23.25;;;0.60;99.90;;;;;;5116339;28;20078;-52
2022/12/13 06:52:17;;;;;;;25.65;17.77;;;0.70;99.90;;;;;;5116571;28;20467;-53
2022/12/13 06:54:43;;;;;;;26.00;17.98;;;0.60;99.90;;;;;;5113997;28;20045;-55
2022/12/13 06:57:10;;;;;;;28.75;17.70;;;0.80;99.90;;;;;;5095779;28;20483;-52
2022/12/13 06:59:36;;;;;;;29.58;19.13;;;0.70;99.90;;;;;;5115756;28;20149;-55
2022/12/13 07:02:03;;;;;;;35.28;21.25;;;0.70;99.90;;;;;;5115698;28;20073;-54
2022/12/13 07:04:29;;;;;;;38.03;23.58;;;0.70;99.90;;;;;;5115726;28;20023;-53
2022/12/13 07:06:55;;;;;;;32.67;20.85;;;0.80;99.90;;;;;;5115690;28;20028;-53
2022/12/13 07:09:20;;;;;;;26.40;17.50;;;1.00;99.90;;;;;;5097020;28;20042;-53
2022/12/13 07:11:46;;;;;;;33.15;21.15;;;1.00;99.90;;;;;;5116139;28;20054;-53
2022/12/13 07:14:12;;;;;;;32.75;19.27;;;1.00;99.90;;;;;;5097468;28;20044;-52
2022/12/13 07:16:37;;;;;;;32.60;20.15;;;1.20;99.90;;;;;;5112414;28;20032;-55
2022/12/13 07:19:04;;;;;;;28.13;17.70;;;1.40;99.90;;;;;;5116254;28;20467;-55
2022/12/13 07:21:30;;;;;;;31.70;20.52;;;1.60;99.90;;;;;;5113667;28;20031;-54
2022/12/13 07:23:56;;;;;;;31.48;19.55;;;2.00;99.90;;;;;;5114088;28;20047;-55
2022/12/13 07:26:22;;;;;;;26.40;18.02;;;2.10;99.90;;;;;;5114007;28;20089;-54
2022/12/13 07:28:48;;;;;;;27.33;16.13;;;1.90;99.90;;;;;;5115466;27;20452;-55
2022/12/13 07:31:14;;;;;;;27.13;17.33;;;1.60;99.90;;;;;;5114949;28;20027;-55
2022/12/13 07:33:40;;;;;;;42.40;23.67;;;1.70;99.90;;;;;;5115682;28;20028;-52
2022/12/13 07:36:09;;;;;;;30.33;19.00;;;1.90;99.90;;;;;;5114998;28;20031;-53
2022/12/13 07:38:35;;;;;;;30.02;17.90;;;1.60;99.90;;;;;;5116166;28;20042;-54
2022/12/13 07:41:02;;;;;;;37.45;23.40;;;1.80;99.90;;;;;;5115664;28;20360;-54
2022/12/13 07:43:28;;;;;;;25.55;16.52;;;1.40;99.90;;;;;;5115626;28;20024;-53
2022/12/13 07:45:58;;;;;;;29.77;19.10;;;1.30;99.90;;;;;;5115432;28;20414;-54
2022/12/13 07:48:26;;;;;;;28.88;18.92;;;1.20;99.90;;;;;;5115545;28;20023;-52
2022/12/13 07:50:52;;;;;;;28.20;18.27;;;1.60;99.90;;;;;;5115774;28;20532;-53
2022/12/13 07:53:18;;;;;;;29.10;19.02;;;1.80;99.90;;;;;;5115528;28;20032;-53
2022/12/13 07:55:44;;;;;;;39.05;23.90;;;1.80;99.90;;;;;;5115480;28;20097;-55
2022/12/13 07:58:13;;;;;;;34.95;23.70;;;1.90;99.90;;;;;;5115344;28;20054;-56
2022/12/13 08:00:42;;;;;;;27.05;17.80;;;2.40;99.90;;;;;;5115309;28;20019;-55
2022/12/13 08:03:08;;;;;;;28.13;18.00;;;2.40;99.90;;;;;;5115203;28;20023;-53
2022/12/13 08:05:35;;;;;;;24.35;15.32;;;2.60;99.90;;;;;;5114608;28;20556;-55
2022/12/13 08:08:03;;;;;;;24.73;15.70;;;2.60;99.90;;;;;;5115288;28;20046;-54
2022/12/13 08:10:29;;;;;;;42.40;25.30;;;2.60;99.90;;;;;;5115143;28;20045;-54
2022/12/13 08:12:55;;;;;;;34.65;22.27;;;2.30;99.90;;;;;;5114929;28;20088;-53
2022/12/13 08:15:21;;;;;;;30.25;16.92;;;2.70;99.90;;;;;;5104931;27;20130;-48
2022/12/13 08:17:48;;;;;;;27.67;18.38;;;;;;;;;;5104721;28;20031;-54
2022/12/13 08:20:14;;;;;;;29.40;20.70;;;2.90;99.90;;;;;;5104006;28;20028;-56
2022/12/13 08:22:40;;;;;;;29.08;19.42;;;3.30;99.90;;;;;;5102189;28;20483;-56
2022/12/13 08:25:06;;;;;;;31.23;20.65;;;3.60;99.90;;;;;;5095686;28;20036;-56
2022/12/13 08:27:32;;;;;;;29.52;21.63;;;3.40;99.90;;;;;;5108328;28;20042;-55
2022/12/13 08:29:58;;;;;;;31.88;21.67;;;3.90;99.90;;;;;;5103091;28;20044;-53
2022/12/13 08:32:24;;;;;;;36.58;25.55;;;3.80;99.90;;;;;;5107552;28;20024;-53
2022/12/13 08:34:50;;;;;;;29.50;21.00;;;3.90;99.90;;;;;;5103281;28;20451;-53
2022/12/13 08:37:16;;;;;;;29.70;20.65;;;4.00;99.90;;;;;;5103730;28;20442;-54
2022/12/13 08:39:43;;;;;;;33.78;23.77;;;4.30;99.90;;;;;;5099330;28;20036;-54
2022/12/13 08:42:13;;;;;;;29.70;20.30;;;;;;;;;;5098042;28;20031;-54
2022/12/13 08:44:39;;;;;;;29.88;19.42;;;4.90;99.90;;;;;;5107770;28;20031;-50
2022/12/13 08:47:05;;;;;;;25.25;18.60;;;4.90;99.90;;;;;;5049099;28;20039;-51
2022/12/13 08:49:30;;;;;;;28.52;18.75;;;5.00;99.90;;;;;;5101437;28;20031;-51
2022/12/13 08:51:56;;;;;;;25.52;18.83;;;4.70;99.90;;;;;;5105434;28;20371;-52
2022/12/13 08:54:22;;;;;;;26.55;19.15;;;5.10;99.90;;;;;;5098200;28;20360;-54
2022/12/13 08:56:48;;;;;;;27.30;20.15;;;5.30;99.90;;;;;;5082606;28;20119;-55
2022/12/13 08:59:14;;;;;;;26.90;18.67;;;5.30;99.90;;;;;;5098966;28;20032;-55
2022/12/13 09:01:40;;;;;;;32.15;20.50;;;6.00;99.90;;;;;;5101434;28;20027;-54
2022/12/13 09:04:05;;;;;;;35.60;20.42;;;6.70;99.90;;;;;;5102360;28;20379;-55
2022/12/13 09:06:31;;;;;;;25.33;18.63;;;6.80;99.90;;;;;;5104763;28;20072;-54
2022/12/13 09:08:57;;;;;;;30.08;20.73;;;6.50;99.90;;;;;;5100790;28;20024;-55
2022/12/13 09:11:23;;;;;;;28.10;18.83;;;6.60;99.90;;;;;;5097399;28;20040;-54
2022/12/13 09:13:49;;;;;;;27.58;19.20;;;5.50;99.90;;;;;;5105642;28;20059;-54
2022/12/13 09:16:22;;;;;;;25.70;17.58;;;5.00;99.90;;;;;;5110146;28;20028;-54
2022/12/13 09:18:49;;;;;;;22.10;16.25;;;4.90;99.90;;;;;;5099506;28;20038;-53
2022/12/13 09:21:15;;;;;;;22.80;17.63;;;5.60;99.90;;;;;;5084876;28;20508;-53
2022/12/13 09:23:41;;;;;;;20.00;16.15;;;5.90;99.90;;;;;;5094567;28;20019;-51
2022/12/13 09:26:08;;;;;;;23.90;14.52;;;6.50;99.90;;;;;;5100724;28;20048;-56
2022/12/13 09:28:35;;;;;;;22.50;15.98;;;6.30;99.90;;;;;;5101478;28;20760;-53
2022/12/13 09:31:15;;;;;;;18.83;14.18;;;5.60;99.90;;;;;;5099190;28;20035;-53
2022/12/13 09:33:42;;;;;;;21.02;15.40;;;5.90;99.90;;;;;;5105232;28;20039;-54
2022/12/13 09:36:11;;;;;;;20.40;14.27;;;5.30;99.90;;;;;;5097796;28;20367;-54
2022/12/13 09:38:37;;;;;;;21.08;14.85;;;5.40;99.90;;;;;;5097839;28;20124;-54
2022/12/13 09:41:11;;;;;;;21.42;15.82;;;6.10;99.90;;;;;;5095171;28;20442;-54
2022/12/13 09:43:38;;;;;;;22.70;16.63;;;6.40;99.90;;;;;;5107574;28;20035;-54
2022/12/13 09:46:10;;;;;;;24.25;18.70;;;6.70;99.90;;;;;;5097406;28;20048;-54
2022/12/13 09:48:36;;;;;;;30.65;20.10;;;7.00;99.90;;;;;;5105339;28;20535;-54
2022/12/13 09:51:02;;;;;;;34.25;24.73;;;7.10;99.90;;;;;;5068733;28;20074;-53
2022/12/13 09:53:29;;;;;;;32.92;25.95;;;;;;;;;;5106687;28;20036;-54
2022/12/13 09:55:54;;;;;;;33.83;24.58;;;8.70;99.90;;;;;;5103978;28;20395;-55
2022/12/13 09:58:24;;;;;;;36.88;26.10;;;8.80;99.90;;;;;;5094621;28;20145;-54
2022/12/13 10:00:52;;;;;;;41.28;30.77;;;8.40;99.90;;;;;;5097100;28;20476;-54
2022/12/13 10:03:19;;;;;;;45.30;32.17;;;;;;;;;;5107551;28;20027;-54
2022/12/13 10:06:03;;;;;;;31.80;23.48;;;9.90;99.90;;;;;;5083022;28;20197;-55
2022/12/13 10:08:37;;;;;;;35.28;22.83;;;9.30;99.90;;;;;;5098520;28;20149;-54
2022/12/13 10:11:03;;;;;;;29.02;21.20;;;9.70;99.90;;;;;;5102919;28;20111;-54
2022/12/13 10:13:38;;;;;;;28.70;20.52;;;9.90;99.90;;;;;;5102191;28;20494;-55
2022/12/13 10:16:27;;;;;;;31.83;23.35;;;9.60;99.90;;;;;;5107298;28;20039;-55
2022/12/13 10:18:55;;;;;;;32.92;23.63;;;8.90;99.90;;;;;;5093610;28;20689;-56
2022/12/13 10:21:36;;;;;;;35.13;24.17;;;9.30;99.90;;;;;;5102027;28;20562;-54
2022/12/13 10:24:17;;;;;;;30.83;24.70;;;9.90;99.90;;;;;;5104858;28;20085;-54
2022/12/13 10:26:44;;;;;;;31.73;23.83;;;;;;;;;;5100377;28;20035;-54
2022/12/13 10:29:10;;;;;;;31.52;23.10;;;10.70;99.90;;;;;;5084136;28;20066;-55
2022/12/13 10:31:42;;;;;;;33.75;25.50;;;10.10;99.90;;;;;;5099672;28;20479;-54
2022/12/13 10:34:15;;;;;;;;;;;10.30;99.90;;;;;;5099998;28;20028;-54
2022/12/13 10:36:42;;;;;;;34.30;25.17;;;;;;;;;;5107830;28;19994;-55
2022/12/13 10:39:16;;;;;;;38.35;27.75;;;;;;;;;;5109879;28;20432;-55
2022/12/13 10:41:42;;;;;;;37.72;28.83;;;11.90;99.90;;;;;;5105150;28;20176;-55
2022/12/13 10:44:10;;;;;;;31.02;25.33;;;12.30;98.50;;;;;;5098751;28;20503;-55
2022/12/13 10:46:37;;;;;;;32.58;24.88;;;;;;;;;;5100963;28;20108;-55
2022/12/13 10:49:03;;;;;;;25.17;21.00;;;12.30;99.90;;;;;;5110223;28;20024;-55
2022/12/13 10:51:38;;;;;;;23.88;18.75;;;11.70;95.70;;;;;;5105878;28;20495;-55
2022/12/13 10:54:04;;;;;;;21.45;18.02;;;12.20;95.30;;;;;;5109769;28;20494;-55
2022/12/13 10:56:37;;;;;;;25.45;16.77;;;11.80;94.90;;;;;;5099627;28;20032;-55
2022/12/13 10:59:32;;;;;;;23.15;17.98;;;;;;;;;;5098984;28;20494;-56
2022/12/13 11:01:59;;;;;;;19.60;15.85;;;10.50;99.90;;;;;;5086821;28;20043;-54
2022/12/13 11:04:33;;;;;;;22.27;16.42;;;10.40;95.60;;;;;;5092187;28;20020;-55
2022/12/13 11:07:24;;;;;;;17.33;14.43;;;10.60;96.20;;;;;;5092327;28;20040;-55
2022/12/13 11:09:49;;;;;;;18.67;15.32;;;10.60;95.40;;;;;;5092308;28;20032;-57
2022/12/13 11:12:21;;;;;;;18.10;15.05;;;11.20;94.80;;;;;;5092723;28;20545;-56
2022/12/13 11:15:07;;;;;;;17.77;14.37;;;;;;;;;;5085017;28;20028;-55
2022/12/13 11:17:38;;;;;;;16.40;13.20;;;;;;;;;;5013206;28;20037;-55
2022/12/13 11:20:06;;;;;;;17.10;15.27;;;;;;;;;;5028905;28;20366;-55
2022/12/13 11:22:34;;;;;;;23.67;19.17;;;;;;;;;;5030760;28;20401;-55
2022/12/13 11:25:30;;;;;;;20.75;17.00;;;;;;;;;;5031340;28;20057;-56
2022/12/13 11:28:05;;;;;;;11.63;9.60;;;10.30;92.30;;;;;;4972635;28;20038;-56
2022/12/13 11:30:31;;;;;;;20.23;15.80;;;;;;;;;;4972354;28;20125;-55
2022/12/13 11:33:08;;;;;;;16.88;14.57;;;10.40;94.80;;;;;;4970327;28;20132;-57
2022/12/13 11:35:52;;;;;;;17.10;15.30;;;10.40;94.00;;;;;;4970226;28;20039;-56
2022/12/13 11:38:31;;;;;;;10.60;7.22;;;11.60;93.40;;;;;;4977274;28;20047;-55
2022/12/13 11:41:21;;;;;;;17.35;13.02;;;9.60;92.70;;;;;;4979359;28;20402;-55
2022/12/13 11:43:47;;;;;;;18.90;14.48;;;;;;;;;;4993255;28;20048;-56
2022/12/13 11:46:28;;;;;;;18.25;14.60;;;8.40;95.20;;;;;;4991452;28;20042;-55
2022/12/13 11:48:57;;;;;;;17.90;13.77;;;;;;;;;;4983215;28;20117;-55
2022/12/13 11:51:30;;;;;;;15.05;10.45;;;;;;;;;;4982590;28;20038;-55
2022/12/13 11:54:02;;;;;;;15.93;11.75;;;;;;;;;;4994630;28;20034;-55
2022/12/13 11:56:41;;;;;;;18.23;12.80;;;6.90;94.70;;;;;;5029881;28;20033;-56
2022/12/13 11:59:25;;;;;;;18.48;12.93;;;6.90;96.70;;;;;;4974858;28;20033;-55
2022/12/13 12:01:56;;;;;;;20.95;14.77;;;7.00;96.00;;;;;;5019860;28;20587;-56
2022/12/13 12:04:58;;;;;;;21.90;15.00;;;;;;;;;;5063558;28;20078;-55
2022/12/13 12:07:36;;;;;;;24.77;16.90;;;6.70;99.90;;;;;;5072836;28;20035;-55
2022/12/13 12:10:13;;;;;;;21.20;13.65;;;6.40;99.90;;;;;;5072673;28;20361;-55
2022/12/13 12:12:47;;;;;;;18.60;12.15;;;6.20;96.80;;;;;;5072424;28;20139;-55
2022/12/13 12:15:27;;;;;;;20.48;14.27;;;5.80;96.90;;;;;;5072161;28;20127;-56
2022/12/13 12:17:56;;;;;;;18.02;11.45;;;5.80;97.20;;;;;;5069224;28;20407;-57
2022/12/13 12:20:40;;;;;;;17.80;12.98;;;5.60;96.90;;;;;;5070276;28;20108;-55
2022/12/13 12:23:50;;;;;;;23.50;15.23;;;5.40;98.10;;;;;;5069406;28;20514;-55
2022/12/13 12:26:17;;;;;;;20.08;14.38;;;5.70;98.70;;;;;;5063157;28;20143;-56
2022/12/13 12:28:55;;;;;;;22.95;14.55;;;5.60;98.40;;;;;;5069189;28;20052;-54
2022/12/13 12:31:46;;;;;;;22.02;15.25;;;5.60;98.60;;;;;;5072312;28;20020;-54
2022/12/13 12:34:20;;;;;;;21.15;12.52;;;5.90;99.00;;;;;;5073161;28;20119;-53
2022/12/13 12:37:28;;;;;;;24.05;13.65;;;5.70;98.60;;;;;;5069208;28;21895;-54
2022/12/13 12:40:35;;;;;;;24.35;15.82;;;5.40;98.30;;;;;;5068887;28;20075;-54
2022/12/13 12:43:17;;;;;;;25.80;16.00;;;5.40;98.40;;;;;;5098731;28;20032;-55
2022/12/13 12:46:10;;;;;;;34.85;20.05;;;5.40;98.90;;;;;;5098134;27;20058;-55
2022/12/13 12:48:44;;;;;;;;;;;5.30;99.20;;;;;;5115651;28;20042;-55
2022/12/13 12:51:23;;;;;;;23.42;13.52;;;;;;;;;;5114277;28;19956;-55
2022/12/13 12:53:55;;;;;;;32.15;17.73;;;4.90;99.80;;;;;;5107401;28;20032;-54
2022/12/13 12:56:48;;;;;;;29.08;16.92;;;5.00;99.90;;;;;;5099061;28;20072;-55
2022/12/13 12:59:26;;;;;;;30.15;18.83;;;4.70;99.90;;;;;;5106791;27;20027;-59
2022/12/13 13:02:19;;;;;;;31.02;18.63;;;5.00;99.90;;;;;;5081876;28;20051;-54